sensor_id;sensor_type;location;lat;lon;timestamp;pressure;altitude;pressure_sealevel;temperature;humidity
46876;BME280;32866;50.160;14.768;2023-04-26T00:01:28;99187.88;;;2.56;100.00
46876;BME280;32866;50.160;14.768;2023-04-26T00:03:54;99181.72;;;2.55;100.00
46876;BME280;32866;50.160;14.768;2023-04-26T00:06:20;99211.84;;;2.75;100.00
46876;BME280;32866;50.160;14.768;2023-04-26T00:08:45;99178.25;;;2.40;100.00
46876;BME280;32866;50.160;14.768;2023-04-26T00:11:10;99193.72;;;2.40;100.00
46876;BME280;32866;50.160;14.768;2023-04-26T00:13:36;99218.81;;;2.37;100.00
46876;BME280;32866;50.160;14.768;2023-04-26T00:16:03;99216.88;;;2.23;100.00
46876;BME280;32866;50.160;14.768;2023-04-26T00:18:28;99216.50;;;2.28;100.00
46876;BME280;32866;50.160;14.768;2023-04-26T00:20:53;99169.72;;;1.84;100.00
46876;BME280;32866;50.160;14.768;2023-04-26T00:23:19;99173.19;;;1.85;100.00
46876;BME280;32866;50.160;14.768;2023-04-26T00:25:44;99216.47;;;2.14;100.00
46876;BME280;32866;50.160;14.768;2023-04-26T00:28:10;99221.88;;;2.03;100.00
46876;BME280;32866;50.160;14.768;2023-04-26T00:30:35;99231.13;;;1.91;100.00
46876;BME280;32866;50.160;14.768;2023-04-26T00:33:05;99207.91;;;1.76;100.00
46876;BME280;32866;50.160;14.768;2023-04-26T00:35:30;99191.69;;;1.76;100.00
46876;BME280;32866;50.160;14.768;2023-04-26T00:37:56;99199.84;;;1.83;100.00
46876;BME280;32866;50.160;14.768;2023-04-26T00:40:21;99224.97;;;1.98;100.00
46876;BME280;32866;50.160;14.768;2023-04-26T00:42:46;99201.72;;;1.64;100.00
46876;BME280;32866;50.160;14.768;2023-04-26T00:45:12;99195.53;;;1.67;100.00
46876;BME280;32866;50.160;14.768;2023-04-26T00:47:37;99197.09;;;1.65;100.00
46876;BME280;32866;50.160;14.768;2023-04-26T00:50:03;99216.06;;;1.87;100.00
46876;BME280;32866;50.160;14.768;2023-04-26T00:52:29;99193.94;;;1.56;100.00
46876;BME280;32866;50.160;14.768;2023-04-26T00:54:55;99226.81;;;1.72;100.00
46876;BME280;32866;50.160;14.768;2023-04-26T00:57:21;99230.69;;;1.71;100.00
46876;BME280;32866;50.160;14.768;2023-04-26T00:59:46;99205.50;;;1.45;100.00
46876;BME280;32866;50.160;14.768;2023-04-26T01:02:12;99209.00;;;1.50;100.00
46876;BME280;32866;50.160;14.768;2023-04-26T01:04:37;99239.56;;;1.75;100.00
46876;BME280;32866;50.160;14.768;2023-04-26T01:07:06;99230.69;;;1.82;100.00
46876;BME280;32866;50.160;14.768;2023-04-26T01:09:31;99228.38;;;1.73;100.00
46876;BME280;32866;50.160;14.768;2023-04-26T01:11:58;99232.22;;;1.72;100.00
46876;BME280;32866;50.160;14.768;2023-04-26T01:14:25;99234.16;;;1.75;100.00
46876;BME280;32866;50.160;14.768;2023-04-26T01:16:51;99188.91;;;1.51;100.00
46876;BME280;32866;50.160;14.768;2023-04-26T01:19:16;99182.41;;;1.62;100.00
46876;BME280;32866;50.160;14.768;2023-04-26T01:21:42;99200.97;;;1.71;100.00
46876;BME280;32866;50.160;14.768;2023-04-26T01:24:11;99241.53;;;1.93;100.00
46876;BME280;32866;50.160;14.768;2023-04-26T01:26:41;99241.94;;;2.06;100.00
46876;BME280;32866;50.160;14.768;2023-04-26T01:29:16;99241.19;;;2.16;100.00
46876;BME280;32866;50.160;14.768;2023-04-26T01:31:42;99233.47;;;2.14;100.00
46876;BME280;32866;50.160;14.768;2023-04-26T01:34:08;99248.53;;;2.19;100.00
46876;BME280;32866;50.160;14.768;2023-04-26T01:36:34;99239.28;;;2.27;100.00
46876;BME280;32866;50.160;14.768;2023-04-26T01:38:59;99195.63;;;2.00;100.00
46876;BME280;32866;50.160;14.768;2023-04-26T01:41:24;99192.50;;;1.91;100.00
46876;BME280;32866;50.160;14.768;2023-04-26T01:43:50;99203.34;;;2.12;100.00
46876;BME280;32866;50.160;14.768;2023-04-26T01:46:15;99247.00;;;2.32;100.00
46876;BME280;32866;50.160;14.768;2023-04-26T01:48:41;99247.00;;;2.36;100.00
46876;BME280;32866;50.160;14.768;2023-04-26T01:51:06;99261.28;;;2.33;100.00
46876;BME280;32866;50.160;14.768;2023-04-26T01:53:31;99263.63;;;2.34;100.00
46876;BME280;32866;50.160;14.768;2023-04-26T01:56:00;99260.53;;;2.21;100.00
46876;BME280;32866;50.160;14.768;2023-04-26T01:58:25;99267.47;;;2.15;100.00
46876;BME280;32866;50.160;14.768;2023-04-26T02:00:51;99229.19;;;1.99;100.00
46876;BME280;32866;50.160;14.768;2023-04-26T02:03:16;99273.25;;;2.21;100.00
46876;BME280;32866;50.160;14.768;2023-04-26T02:05:42;99269.38;;;2.04;100.00
46876;BME280;32866;50.160;14.768;2023-04-26T02:08:07;99229.50;;;1.72;100.00
46876;BME280;32866;50.160;14.768;2023-04-26T02:10:33;99241.06;;;1.65;100.00
46876;BME280;32866;50.160;14.768;2023-04-26T02:12:58;99238.78;;;1.71;100.00
46876;BME280;32866;50.160;14.768;2023-04-26T02:15:23;99268.59;;;1.96;100.00
46876;BME280;32866;50.160;14.768;2023-04-26T02:17:49;99241.47;;;1.67;100.00
46876;BME280;32866;50.160;14.768;2023-04-26T02:20:14;99255.84;;;1.93;100.00
46876;BME280;32866;50.160;14.768;2023-04-26T02:22:40;99267.47;;;2.08;100.00
46876;BME280;32866;50.160;14.768;2023-04-26T02:25:06;99269.78;;;2.13;100.00
46876;BME280;32866;50.160;14.768;2023-04-26T02:27:31;99267.47;;;2.12;100.00
46876;BME280;32866;50.160;14.768;2023-04-26T02:29:58;99275.56;;;2.15;100.00
46876;BME280;32866;50.160;14.768;2023-04-26T02:32:23;99241.94;;;1.95;100.00
46876;BME280;32866;50.160;14.768;2023-04-26T02:34:48;99236.16;;;1.96;100.00
46876;BME280;32866;50.160;14.768;2023-04-26T02:37:14;99276.00;;;2.28;100.00
46876;BME280;32866;50.160;14.768;2023-04-26T02:39:39;99274.06;;;2.36;100.00
46876;BME280;32866;50.160;14.768;2023-04-26T02:42:08;99267.50;;;2.30;100.00
46876;BME280;32866;50.160;14.768;2023-04-26T02:44:34;99269.41;;;2.33;100.00
46876;BME280;32866;50.160;14.768;2023-04-26T02:47:00;99264.38;;;2.28;100.00
46876;BME280;32866;50.160;14.768;2023-04-26T02:49:26;99271.38;;;2.43;100.00
46876;BME280;32866;50.160;14.768;2023-04-26T02:51:51;99271.38;;;2.50;100.00
46876;BME280;32866;50.160;14.768;2023-04-26T02:54:17;99269.84;;;2.60;100.00
46876;BME280;32866;50.160;14.768;2023-04-26T02:56:42;99223.06;;;2.34;100.00
46876;BME280;32866;50.160;14.768;2023-04-26T02:59:08;99271.38;;;2.68;100.00
46876;BME280;32866;50.160;14.768;2023-04-26T03:01:33;99238.50;;;2.45;100.00
46876;BME280;32866;50.160;14.768;2023-04-26T03:03:58;99273.69;;;2.77;100.00
46876;BME280;32866;50.160;14.768;2023-04-26T03:06:24;99272.91;;;2.76;100.00
46876;BME280;32866;50.160;14.768;2023-04-26T03:08:49;99221.91;;;2.50;100.00
46876;BME280;32866;50.160;14.768;2023-04-26T03:11:14;99244.31;;;2.57;100.00
46876;BME280;32866;50.160;14.768;2023-04-26T03:13:40;99236.97;;;2.51;100.00
46876;BME280;32866;50.160;14.768;2023-04-26T03:16:05;99268.28;;;2.84;100.00
46876;BME280;32866;50.160;14.768;2023-04-26T03:18:31;99271.34;;;2.83;100.00
46876;BME280;32866;50.160;14.768;2023-04-26T03:20:56;99265.94;;;2.83;100.00
46876;BME280;32866;50.160;14.768;2023-04-26T03:23:21;99269.06;;;2.67;100.00
46876;BME280;32866;50.160;14.768;2023-04-26T03:25:49;99252.81;;;2.52;100.00
46876;BME280;32866;50.160;14.768;2023-04-26T03:28:15;99243.16;;;2.55;100.00
46876;BME280;32866;50.160;14.768;2023-04-26T03:30:41;99242.78;;;2.56;100.00
46876;BME280;32866;50.160;14.768;2023-04-26T03:33:06;99247.41;;;2.45;100.00
46876;BME280;32866;50.160;14.768;2023-04-26T03:35:32;99244.69;;;2.52;100.00
46876;BME280;32866;50.160;14.768;2023-04-26T03:37:57;99253.97;;;2.51;100.00
46876;BME280;32866;50.160;14.768;2023-04-26T03:40:22;99249.72;;;2.54;100.00
46876;BME280;32866;50.160;14.768;2023-04-26T03:42:48;99292.25;;;3.00;100.00
46876;BME280;32866;50.160;14.768;2023-04-26T03:45:13;99245.84;;;2.73;100.00
46876;BME280;32866;50.160;14.768;2023-04-26T03:47:38;99282.19;;;2.97;100.00
46876;BME280;32866;50.160;14.768;2023-04-26T03:50:05;99251.66;;;2.78;100.00
46876;BME280;32866;50.160;14.768;2023-04-26T03:52:30;99290.72;;;2.88;100.00
46876;BME280;32866;50.160;14.768;2023-04-26T03:54:56;99290.69;;;2.74;100.00
46876;BME280;32866;50.160;14.768;2023-04-26T03:57:21;99278.31;;;2.69;100.00
46876;BME280;32866;50.160;14.768;2023-04-26T03:59:47;99278.31;;;2.69;100.00
46876;BME280;32866;50.160;14.768;2023-04-26T04:02:12;99279.88;;;2.81;100.00
46876;BME280;32866;50.160;14.768;2023-04-26T04:04:37;99312.72;;;3.08;100.00
46876;BME280;32866;50.160;14.768;2023-04-26T04:07:03;99262.88;;;2.81;100.00
46876;BME280;32866;50.160;14.768;2023-04-26T04:09:28;99273.69;;;2.84;100.00
46876;BME280;32866;50.160;14.768;2023-04-26T04:11:54;99316.19;;;3.30;100.00
46876;BME280;32866;50.160;14.768;2023-04-26T04:14:19;99315.41;;;3.23;100.00
46876;BME280;32866;50.160;14.768;2023-04-26T04:16:45;99296.84;;;3.14;100.00
46876;BME280;32866;50.160;14.768;2023-04-26T04:19:10;99284.47;;;3.13;100.00
46876;BME280;32866;50.160;14.768;2023-04-26T04:21:37;99267.47;;;3.05;100.00
46876;BME280;32866;50.160;14.768;2023-04-26T04:24:03;99320.41;;;3.46;100.00
46876;BME280;32866;50.160;14.768;2023-04-26T04:26:28;99319.97;;;3.58;100.00
46876;BME280;32866;50.160;14.768;2023-04-26T04:28:54;99291.44;;;3.18;100.00
46876;BME280;32866;50.160;14.768;2023-04-26T04:31:21;99322.28;;;3.63;100.00
46876;BME280;32866;50.160;14.768;2023-04-26T04:33:46;99272.84;;;3.30;100.00
46876;BME280;32866;50.160;14.768;2023-04-26T04:36:13;99321.50;;;3.66;100.00
46876;BME280;32866;50.160;14.768;2023-04-26T04:38:41;99322.25;;;3.67;100.00
46876;BME280;32866;50.160;14.768;2023-04-26T04:41:06;99335.44;;;3.72;100.00
46876;BME280;32866;50.160;14.768;2023-04-26T04:43:33;99318.38;;;3.71;100.00
46876;BME280;32866;50.160;14.768;2023-04-26T04:45:58;99334.22;;;3.80;100.00
46876;BME280;32866;50.160;14.768;2023-04-26T04:48:24;99346.97;;;3.94;100.00
46876;BME280;32866;50.160;14.768;2023-04-26T04:50:50;99348.50;;;3.95;100.00
46876;BME280;32866;50.160;14.768;2023-04-26T04:53:15;99344.97;;;4.09;100.00
46876;BME280;32866;50.160;14.768;2023-04-26T04:55:41;99341.81;;;4.18;100.00
46876;BME280;32866;50.160;14.768;2023-04-26T04:58:06;99348.34;;;4.24;100.00
46876;BME280;32866;50.160;14.768;2023-04-26T05:00:32;99305.09;;;3.99;100.00
46876;BME280;32866;50.160;14.768;2023-04-26T05:02:58;99333.63;;;4.25;100.00
46876;BME280;32866;50.160;14.768;2023-04-26T05:05:23;99355.13;;;4.64;100.00
46876;BME280;32866;50.160;14.768;2023-04-26T05:07:48;99332.81;;;4.32;100.00
46876;BME280;32866;50.160;14.768;2023-04-26T05:10:14;99334.25;;;4.51;100.00
46876;BME280;32866;50.160;14.768;2023-04-26T05:12:40;99337.34;;;4.56;100.00
46876;BME280;32866;50.160;14.768;2023-04-26T05:15:06;99364.81;;;4.62;100.00
46876;BME280;32866;50.160;14.768;2023-04-26T05:17:32;99371.56;;;4.39;100.00
46876;BME280;32866;50.160;14.768;2023-04-26T05:19:58;99323.81;;;4.45;100.00
46876;BME280;32866;50.160;14.768;2023-04-26T05:22:23;99373.59;;;4.88;100.00
46876;BME280;32866;50.160;14.768;2023-04-26T05:24:49;99330.72;;;4.61;100.00
46876;BME280;32866;50.160;14.768;2023-04-26T05:27:14;99371.06;;;5.11;100.00
46876;BME280;32866;50.160;14.768;2023-04-26T05:29:40;99357.47;;;5.11;100.00
46876;BME280;32866;50.160;14.768;2023-04-26T05:32:06;99382.84;;;5.39;100.00
46876;BME280;32866;50.160;14.768;2023-04-26T05:34:31;99319.75;;;5.20;100.00
46876;BME280;32866;50.160;14.768;2023-04-26T05:36:56;99365.09;;;5.69;100.00
46876;BME280;32866;50.160;14.768;2023-04-26T05:39:22;99369.31;;;5.73;100.00
46876;BME280;32866;50.160;14.768;2023-04-26T05:41:47;99362.22;;;5.45;100.00
46876;BME280;32866;50.160;14.768;2023-04-26T05:44:13;99360.44;;;5.66;100.00
46876;BME280;32866;50.160;14.768;2023-04-26T05:46:41;99387.16;;;6.12;100.00
46876;BME280;32866;50.160;14.768;2023-04-26T05:49:06;99391.63;;;6.26;100.00
46876;BME280;32866;50.160;14.768;2023-04-26T05:51:32;99386.13;;;6.61;100.00
46876;BME280;32866;50.160;14.768;2023-04-26T05:53:57;99382.50;;;6.71;100.00
46876;BME280;32866;50.160;14.768;2023-04-26T05:56:23;99389.00;;;7.04;100.00
46876;BME280;32866;50.160;14.768;2023-04-26T05:58:49;99391.03;;;7.24;100.00
46876;BME280;32866;50.160;14.768;2023-04-26T06:01:15;99370.63;;;7.09;100.00
46876;BME280;32866;50.160;14.768;2023-04-26T06:03:41;99349.00;;;7.21;100.00
46876;BME280;32866;50.160;14.768;2023-04-26T06:06:06;99376.41;;;7.58;100.00
46876;BME280;32866;50.160;14.768;2023-04-26T06:08:32;99392.94;;;8.11;100.00
46876;BME280;32866;50.160;14.768;2023-04-26T06:10:57;99398.34;;;8.87;100.00
46876;BME280;32866;50.160;14.768;2023-04-26T06:13:23;99363.44;;;8.42;100.00
46876;BME280;32866;50.160;14.768;2023-04-26T06:15:48;99384.81;;;8.47;100.00
46876;BME280;32866;50.160;14.768;2023-04-26T06:18:13;99405.13;;;8.46;100.00
46876;BME280;32866;50.160;14.768;2023-04-26T06:20:39;99393.84;;;8.24;100.00
46876;BME280;32866;50.160;14.768;2023-04-26T06:23:05;99407.16;;;8.02;100.00
46876;BME280;32866;50.160;14.768;2023-04-26T06:25:30;99362.47;;;7.52;100.00
46876;BME280;32866;50.160;14.768;2023-04-26T06:27:56;99406.88;;;7.05;100.00
46876;BME280;32866;50.160;14.768;2023-04-26T06:30:22;99407.91;;;6.88;100.00
46876;BME280;32866;50.160;14.768;2023-04-26T06:32:48;99371.59;;;6.44;100.00
46876;BME280;32866;50.160;14.768;2023-04-26T06:35:13;99362.72;;;6.67;100.00
46876;BME280;32866;50.160;14.768;2023-04-26T06:37:38;99412.94;;;7.40;100.00
46876;BME280;32866;50.160;14.768;2023-04-26T06:40:04;99364.00;;;7.10;100.00
46876;BME280;32866;50.160;14.768;2023-04-26T06:42:30;99408.97;;;8.29;100.00
46876;BME280;32866;50.160;14.768;2023-04-26T06:44:55;99371.09;;;7.51;100.00
46876;BME280;32866;50.160;14.768;2023-04-26T06:47:21;99417.97;;;7.42;100.00
46876;BME280;32866;50.160;14.768;2023-04-26T06:49:46;99382.53;;;6.67;100.00
46876;BME280;32866;50.160;14.768;2023-04-26T06:52:11;99363.53;;;6.64;100.00
46876;BME280;32866;50.160;14.768;2023-04-26T06:54:37;99408.53;;;6.99;100.00
46876;BME280;32866;50.160;14.768;2023-04-26T06:57:02;99421.16;;;7.37;100.00
46876;BME280;32866;50.160;14.768;2023-04-26T06:59:27;99419.66;;;7.79;100.00
46876;BME280;32866;50.160;14.768;2023-04-26T07:01:53;99423.19;;;8.20;100.00
46876;BME280;32866;50.160;14.768;2023-04-26T07:04:18;99396.56;;;8.44;100.00
46876;BME280;32866;50.160;14.768;2023-04-26T07:06:45;99429.25;;;9.50;100.00
46876;BME280;32866;50.160;14.768;2023-04-26T07:09:10;99399.28;;;10.05;95.63
46876;BME280;32866;50.160;14.768;2023-04-26T07:11:36;99410.38;;;10.14;92.48
46876;BME280;32866;50.160;14.768;2023-04-26T07:14:03;99419.09;;;10.38;87.83
46876;BME280;32866;50.160;14.768;2023-04-26T07:16:29;99426.69;;;10.34;85.91
46876;BME280;32866;50.160;14.768;2023-04-26T07:18:55;99421.97;;;9.76;88.81
46876;BME280;32866;50.160;14.768;2023-04-26T07:21:24;99421.31;;;10.44;87.86
46876;BME280;32866;50.160;14.768;2023-04-26T07:23:55;99427.22;;;11.32;73.90
46876;BME280;32866;50.160;14.768;2023-04-26T07:26:21;99407.34;;;11.76;67.96
46876;BME280;32866;50.160;14.768;2023-04-26T07:28:47;99422.72;;;11.38;64.49
46876;BME280;32866;50.160;14.768;2023-04-26T07:31:12;99430.06;;;10.38;68.05
46876;BME280;32866;50.160;14.768;2023-04-26T07:33:38;99439.88;;;10.23;70.90
46876;BME280;32866;50.160;14.768;2023-04-26T07:36:03;99430.34;;;10.83;66.97
46876;BME280;32866;50.160;14.768;2023-04-26T07:38:29;99422.53;;;11.20;70.30
46876;BME280;32866;50.160;14.768;2023-04-26T07:40:54;99426.00;;;12.78;63.86
46876;BME280;32866;50.160;14.768;2023-04-26T07:43:20;99399.00;;;13.36;59.25
46876;BME280;32866;50.160;14.768;2023-04-26T07:45:45;99391.22;;;13.71;54.32
46876;BME280;32866;50.160;14.768;2023-04-26T07:48:11;99422.88;;;13.67;52.81
46876;BME280;32866;50.160;14.768;2023-04-26T07:50:37;99435.41;;;12.99;52.95
46876;BME280;32866;50.160;14.768;2023-04-26T07:53:02;99427.63;;;13.66;50.96
46876;BME280;32866;50.160;14.768;2023-04-26T07:55:28;99433.94;;;12.01;56.44
46876;BME280;32866;50.160;14.768;2023-04-26T07:57:53;99401.38;;;11.55;57.13
46876;BME280;32866;50.160;14.768;2023-04-26T08:00:18;99419.06;;;12.11;54.46
46876;BME280;32866;50.160;14.768;2023-04-26T08:02:44;99439.16;;;10.35;58.25
46876;BME280;32866;50.160;14.768;2023-04-26T08:07:41;99421.13;;;8.64;62.13
46876;BME280;32866;50.160;14.768;2023-04-26T08:10:08;99449.34;;;8.17;62.16
46876;BME280;32866;50.160;14.768;2023-04-26T08:12:33;99454.72;;;7.81;65.13
46876;BME280;32866;50.160;14.768;2023-04-26T08:15:00;99447.94;;;7.18;71.16
46876;BME280;32866;50.160;14.768;2023-04-26T08:17:25;99468.00;;;7.04;73.85
46876;BME280;32866;50.160;14.768;2023-04-26T08:19:50;99464.00;;;7.13;78.25
46876;BME280;32866;50.160;14.768;2023-04-26T08:22:16;99467.94;;;6.81;77.02
46876;BME280;32866;50.160;14.768;2023-04-26T08:24:46;99437.84;;;6.34;85.32
46876;BME280;32866;50.160;14.768;2023-04-26T08:27:12;99434.66;;;6.39;83.73
46876;BME280;32866;50.160;14.768;2023-04-26T08:29:37;99471.56;;;7.01;87.81
46876;BME280;32866;50.160;14.768;2023-04-26T08:32:02;99431.91;;;6.69;85.27
46876;BME280;32866;50.160;14.768;2023-04-26T08:34:28;99458.38;;;7.47;84.16
46876;BME280;32866;50.160;14.768;2023-04-26T08:36:53;99462.72;;;8.12;80.81
46876;BME280;32866;50.160;14.768;2023-04-26T08:39:19;99466.53;;;8.58;80.02
46876;BME280;32866;50.160;14.768;2023-04-26T08:41:49;99467.22;;;9.64;71.22
46876;BME280;32866;50.160;14.768;2023-04-26T08:44:21;99436.41;;;10.35;67.99
46876;BME280;32866;50.160;14.768;2023-04-26T08:47:17;99467.22;;;12.03;61.31
46876;BME280;32866;50.160;14.768;2023-04-26T08:49:46;99467.88;;;12.51;56.67
46876;BME280;32866;50.160;14.768;2023-04-26T08:52:18;99433.47;;;13.09;58.17
46876;BME280;32866;50.160;14.768;2023-04-26T08:54:49;99453.16;;;13.58;52.38
46876;BME280;32866;50.160;14.768;2023-04-26T08:57:16;99439.41;;;13.58;53.86
46876;BME280;32866;50.160;14.768;2023-04-26T08:59:42;99471.66;;;14.31;54.75
46876;BME280;32866;50.160;14.768;2023-04-26T09:02:15;99473.38;;;14.99;50.55
46876;BME280;32866;50.160;14.768;2023-04-26T09:04:41;99437.28;;;13.89;51.90
46876;BME280;32866;50.160;14.768;2023-04-26T09:07:07;99453.00;;;13.89;48.32
46876;BME280;32866;50.160;14.768;2023-04-26T09:09:40;99468.25;;;14.73;45.96
46876;BME280;32866;50.160;14.768;2023-04-26T09:12:07;99451.69;;;13.25;50.25
46876;BME280;32866;50.160;14.768;2023-04-26T09:14:32;99463.34;;;12.89;48.88
46876;BME280;32866;50.160;14.768;2023-04-26T09:16:58;99445.25;;;10.82;51.30
46876;BME280;32866;50.160;14.768;2023-04-26T09:19:39;99466.25;;;10.59;53.95
46876;BME280;32866;50.160;14.768;2023-04-26T09:22:08;99466.19;;;11.14;54.31
46876;BME280;32866;50.160;14.768;2023-04-26T09:24:47;99459.31;;;12.80;52.51
46876;BME280;32866;50.160;14.768;2023-04-26T09:27:14;99460.84;;;13.22;50.24
46876;BME280;32866;50.160;14.768;2023-04-26T09:29:44;99453.22;;;12.54;52.21
46876;BME280;32866;50.160;14.768;2023-04-26T09:32:20;99418.75;;;12.09;50.16
46876;BME280;32866;50.160;14.768;2023-04-26T09:34:46;99434.34;;;11.77;51.85
46876;BME280;32866;50.160;14.768;2023-04-26T09:37:11;99440.66;;;11.65;54.37
46876;BME280;32866;50.160;14.768;2023-04-26T09:39:40;99437.34;;;10.58;54.90
46876;BME280;32866;50.160;14.768;2023-04-26T09:42:06;99463.19;;;10.57;58.30
46876;BME280;32866;50.160;14.768;2023-04-26T09:44:32;99458.00;;;10.04;60.22
46876;BME280;32866;50.160;14.768;2023-04-26T09:47:05;99457.44;;;9.80;60.27
46876;BME280;32866;50.160;14.768;2023-04-26T09:49:41;99463.44;;;9.58;64.66
46876;BME280;32866;50.160;14.768;2023-04-26T09:52:07;99462.25;;;9.26;65.96
46876;BME280;32866;50.160;14.768;2023-04-26T09:54:46;99444.84;;;9.20;63.76
46876;BME280;32866;50.160;14.768;2023-04-26T09:57:14;99455.78;;;9.20;66.00
46876;BME280;32866;50.160;14.768;2023-04-26T10:04:46;99440.94;;;8.68;67.31
46876;BME280;32866;50.160;14.768;2023-04-26T10:07:13;99439.69;;;8.89;67.40
46876;BME280;32866;50.160;14.768;2023-04-26T10:09:39;99444.66;;;8.95;64.62
46876;BME280;32866;50.160;14.768;2023-04-26T10:12:05;99445.31;;;8.82;63.96
46876;BME280;32866;50.160;14.768;2023-04-26T10:14:31;99410.50;;;9.19;64.15
46876;BME280;32866;50.160;14.768;2023-04-26T10:16:58;99443.50;;;10.88;60.20
46876;BME280;32866;50.160;14.768;2023-04-26T10:19:24;99430.59;;;13.31;54.01
46876;BME280;32866;50.160;14.768;2023-04-26T10:21:52;99434.53;;;15.36;44.72
46876;BME280;32866;50.160;14.768;2023-04-26T10:24:22;99422.28;;;16.45;44.56
46876;BME280;32866;50.160;14.768;2023-04-26T10:26:48;99426.38;;;16.20;39.88
46876;BME280;32866;50.160;14.768;2023-04-26T10:29:14;99375.28;;;14.03;43.44
46876;BME280;32866;50.160;14.768;2023-04-26T10:34:29;99404.25;;;13.12;47.38
46876;BME280;32866;50.160;14.768;2023-04-26T10:39:34;99436.25;;;14.67;47.43
46876;BME280;32866;50.160;14.768;2023-04-26T10:44:47;99446.16;;;13.25;46.32
46876;BME280;32866;50.160;14.768;2023-04-26T10:47:22;99421.50;;;13.81;47.24
46876;BME280;32866;50.160;14.768;2023-04-26T10:49:48;99428.66;;;15.43;42.04
46876;BME280;32866;50.160;14.768;2023-04-26T10:52:18;99420.91;;;14.04;43.72
46876;BME280;32866;50.160;14.768;2023-04-26T10:54:47;99417.22;;;13.61;42.10
46876;BME280;32866;50.160;14.768;2023-04-26T10:57:13;99407.53;;;12.79;44.95
46876;BME280;32866;50.160;14.768;2023-04-26T10:59:39;99429.69;;;12.00;43.68
46876;BME280;32866;50.160;14.768;2023-04-26T11:02:09;99422.97;;;11.18;44.99
46876;BME280;32866;50.160;14.768;2023-04-26T11:04:52;99419.34;;;10.57;47.71
46876;BME280;32866;50.160;14.768;2023-04-26T11:07:37;99415.09;;;13.75;44.34
46876;BME280;32866;50.160;14.768;2023-04-26T11:10:07;99412.19;;;14.58;41.29
46876;BME280;32866;50.160;14.768;2023-04-26T11:12:33;99412.41;;;14.36;39.00
46876;BME280;32866;50.160;14.768;2023-04-26T11:14:59;99419.69;;;13.78;41.81
46876;BME280;32866;50.160;14.768;2023-04-26T11:17:25;99407.44;;;13.88;40.87
46876;BME280;32866;50.160;14.768;2023-04-26T11:19:50;99416.13;;;15.81;36.73
46876;BME280;32866;50.160;14.768;2023-04-26T11:22:15;99422.38;;;16.06;33.71
46876;BME280;32866;50.160;14.768;2023-04-26T11:24:46;99421.16;;;16.37;35.81
46876;BME280;32866;50.160;14.768;2023-04-26T11:27:11;99390.41;;;16.79;34.31
46876;BME280;32866;50.160;14.768;2023-04-26T11:29:37;99399.34;;;18.44;33.62
46876;BME280;32866;50.160;14.768;2023-04-26T11:32:02;99395.41;;;20.43;34.10
46876;BME280;32866;50.160;14.768;2023-04-26T11:34:35;99412.94;;;17.43;30.51
46876;BME280;32866;50.160;14.768;2023-04-26T11:37:01;99417.44;;;14.46;34.97
46876;BME280;32866;50.160;14.768;2023-04-26T11:39:33;99414.44;;;12.52;39.64
46876;BME280;32866;50.160;14.768;2023-04-26T11:42:10;99417.34;;;11.69;41.48
46876;BME280;32866;50.160;14.768;2023-04-26T11:44:36;99426.84;;;11.08;41.92
46876;BME280;32866;50.160;14.768;2023-04-26T11:47:03;99412.00;;;11.18;44.21
46876;BME280;32866;50.160;14.768;2023-04-26T11:49:33;99410.06;;;12.33;41.26
46876;BME280;32866;50.160;14.768;2023-04-26T11:51:59;99418.19;;;14.99;39.74
46876;BME280;32866;50.160;14.768;2023-04-26T11:54:30;99416.56;;;16.48;36.42
46876;BME280;32866;50.160;14.768;2023-04-26T11:56:56;99410.72;;;16.91;33.37
46876;BME280;32866;50.160;14.768;2023-04-26T11:59:25;99412.13;;;17.84;33.14
46876;BME280;32866;50.160;14.768;2023-04-26T12:01:50;99414.50;;;17.29;31.73
46876;BME280;32866;50.160;14.768;2023-04-26T12:04:19;99422.19;;;18.60;31.79
46876;BME280;32866;50.160;14.768;2023-04-26T12:06:51;99417.94;;;17.03;31.86
46876;BME280;32866;50.160;14.768;2023-04-26T12:09:16;99412.28;;;17.13;34.68
46876;BME280;32866;50.160;14.768;2023-04-26T12:11:47;99425.97;;;16.72;33.27
46876;BME280;32866;50.160;14.768;2023-04-26T12:14:17;99423.03;;;15.13;35.36
46876;BME280;32866;50.160;14.768;2023-04-26T12:16:42;99427.31;;;13.46;38.61
46876;BME280;32866;50.160;14.768;2023-04-26T12:19:08;99437.59;;;12.42;40.05
46876;BME280;32866;50.160;14.768;2023-04-26T12:21:42;99428.47;;;12.01;41.62
46876;BME280;32866;50.160;14.768;2023-04-26T12:24:22;99418.94;;;11.93;43.42
46876;BME280;32866;50.160;14.768;2023-04-26T12:26:48;99405.69;;;11.43;42.13
46876;BME280;32866;50.160;14.768;2023-04-26T12:29:13;99414.94;;;11.24;43.96
46876;BME280;32866;50.160;14.768;2023-04-26T12:31:39;99408.00;;;11.45;42.75
46876;BME280;32866;50.160;14.768;2023-04-26T12:34:04;99426.19;;;14.45;41.93
46876;BME280;32866;50.160;14.768;2023-04-26T12:36:30;99407.69;;;16.14;35.77
46876;BME280;32866;50.160;14.768;2023-04-26T12:38:55;99402.03;;;15.79;34.70
46876;BME280;32866;50.160;14.768;2023-04-26T12:41:22;99418.69;;;14.36;38.99
46876;BME280;32866;50.160;14.768;2023-04-26T12:43:47;99428.50;;;12.95;40.57
46876;BME280;32866;50.160;14.768;2023-04-26T12:46:12;99439.72;;;12.16;43.15
46876;BME280;32866;50.160;14.768;2023-04-26T12:48:38;99406.16;;;11.29;43.74
46876;BME280;32866;50.160;14.768;2023-04-26T12:51:03;99400.25;;;11.65;43.21
46876;BME280;32866;50.160;14.768;2023-04-26T12:53:29;99412.50;;;11.51;42.85
46876;BME280;32866;50.160;14.768;2023-04-26T12:55:54;99395.28;;;11.38;42.41
46876;BME280;32866;50.160;14.768;2023-04-26T12:58:20;99391.41;;;11.83;42.91
46876;BME280;32866;50.160;14.768;2023-04-26T13:00:46;99420.06;;;12.27;42.88
46876;BME280;32866;50.160;14.768;2023-04-26T13:03:12;99391.00;;;13.29;39.76